Time,TemperatureF,DewpointF,PressureIn,WindDirection,WindDirectionDegrees,WindSpeedMPH,WindSpeedGustMPH,Humidity,HourlyPrecipIn,Conditions,Clouds,dailyrainin,SolarRadiationWatts/m^2,SoftwareType,DateUTC
2014-01-16 00:02:00,57.8,15.7,30.27,NNE,30,0.0,0.0,19,0.00,CLR,SCT,0.00,0.0,WeatherDisplay:10.37,2014-01-16 08:02:00,
2014-01-16 00:07:00,56.9,17.3,30.26,ENE,59,2.0,2.0,21,0.00,CLR,SCT,0.00,0.0,WeatherDisplay:10.37,2014-01-16 08:07:00,
2014-01-16 00:12:00,58.0,14.7,30.26,ENE,64,0.0,0.0,18,0.00,CLR,SCT,0.00,0.0,WeatherDisplay:10.37,2014-01-16 08:12:00,
2014-01-16 00:17:00,59.2,14.3,30.26,NNE,25,1.2,1.5,17,0.00,CLR,SCT,0.00,0.0,WeatherDisplay:10.37,2014-01-16 08:17:00,
2014-01-16 00:22:00,59.8,16.1,30.26,ENE,69,2.0,2.0,18,0.00,CLR,SCT,0.00,0.0,WeatherDisplay:10.37,2014-01-16 08:22:00,
2014-01-16 00:27:00,58.4,15.0,30.26,NNE,30,3.5,3.5,18,0.00,CLR,SCT,0.00,0.0,WeatherDisplay:10.37,2014-01-16 08:27:00,
2014-01-16 00:32:00,57.5,15.5,30.26,NNE,26,2.3,2.3,19,0.00,CLR,SCT,0.00,0.0,WeatherDisplay:10.37,2014-01-16 08:32:00,
2014-01-16 00:37:00,57.9,14.6,30.26,NE,54,1.2,1.2,18,0.00,CLR,SCT,0.00,0.0,WeatherDisplay:10.37,2014-01-16 08:37:00,
2014-01-16 00:42:00,57.7,14.4,30.26,NW,318,2.3,2.3,18,0.00,CLR,SCT,0.00,0.0,WeatherDisplay:10.37,2014-01-16 08:42:00,
2014-01-16 00:47:00,57.9,13.3,30.26,East,87,2.3,2.3,17,0.00,CLR,SCT,0.00,0.0,WeatherDisplay:10.37,2014-01-16 08:47:00,
2014-01-16 00:53:00,57.4,14.2,30.25,NNE,30,1.2,1.2,18,0.00,CLR,SCT,0.00,0.0,WeatherDisplay:10.37,2014-01-16 08:53:00,
2014-01-16 00:58:00,57.3,15.3,30.25,NNE,33,3.5,0.0,19,0.00,CLR,SCT,0.00,0.0,WeatherDisplay:10.37,2014-01-16 08:58:00,
2014-01-16 01:03:00,57.5,15.5,30.25,North,350,3.5,3.5,19,0.00,CLR,SCT,0.00,0.0,WeatherDisplay:10.37,2014-01-16 09:03:00,
2014-01-16 01:08:00,58.3,13.6,30.25,East,86,4.6,4.6,17,0.00,CLR,SCT,0.00,0.0,WeatherDisplay:10.37,2014-01-16 09:08:00,
2014-01-16 01:13:00,57.9,14.6,30.25,ENE,65,0.0,0.0,18,0.00,CLR,SCT,0.00,0.0,WeatherDisplay:10.37,2014-01-16 09:13:00,
2014-01-16 01:18:00,56.4,15.8,30.25,West,277,1.2,1.2,20,0.00,CLR,SCT,0.00,0.0,WeatherDisplay:10.37,2014-01-16 09:18:00,
2014-01-16 01:23:00,55.5,16.1,30.25,NNW,345,3.5,3.5,21,0.00,CLR,SCT,0.00,0.0,WeatherDisplay:10.37,2014-01-16 09:23:00,
2014-01-16 01:28:00,55.9,16.5,30.25,NE,46,2.3,2.3,21,0.00,CLR,SCT,0.00,0.0,WeatherDisplay:10.37,2014-01-16 09:28:00,
2014-01-16 01:33:00,55.0,16.8,30.25,NE,46,2.3,2.3,22,0.00,CLR,SCT,0.00,0.0,WeatherDisplay:10.37,2014-01-16 09:33:00,
2014-01-16 01:38:00,54.8,16.6,30.25,NNE,28,3.5,3.5,22,0.00,CLR,SCT,0.00,0.0,WeatherDisplay:10.37,2014-01-16 09:38:00,
2014-01-16 01:43:00,55.4,16.1,30.25,NW,321,2.3,2.3,21,0.00,CLR,SCT,0.00,0.0,WeatherDisplay:10.37,2014-01-16 09:43:00,
2014-01-16 01:48:00,56.0,15.4,30.24,North,355,4.0,4.0,20,0.00,CLR,SCT,0.00,0.0,WeatherDisplay:10.37,2014-01-16 09:48:00,
2014-01-16 01:53:00,56.1,14.3,30.25,North,355,3.5,3.5,19,0.00,CLR,SCT,0.00,0.0,WeatherDisplay:10.37,2014-01-16 09:53:00,
2014-01-16 01:58:00,57.4,12.9,30.25,NNW,335,3.5,3.5,17,0.00,CLR,SCT,0.00,0.0,WeatherDisplay:10.37,2014-01-16 09:58:00,
2014-01-16 02:03:00,58.4,12.3,30.25,NE,35,3.5,3.5,16,0.00,CLR,SCT,0.00,0.0,WeatherDisplay:10.37,2014-01-16 10:03:00,
2014-01-16 02:08:00,58.1,13.4,30.25,NE,44,3.5,3.5,17,0.00,CLR,SCT,0.00,0.0,WeatherDisplay:10.37,2014-01-16 10:08:00,
2014-01-16 02:13:00,58.4,13.7,30.25,NNE,29,2.3,2.3,17,0.00,CLR,SCT,0.00,0.0,WeatherDisplay:10.37,2014-01-16 10:13:00,
2014-01-16 02:18:00,57.6,14.3,30.25,NNE,28,0.0,0.0,18,0.00,CLR,SCT,0.00,0.0,WeatherDisplay:10.37,2014-01-16 10:18:00,
2014-01-16 02:23:00,56.6,15.9,30.24,NNE,28,0.0,0.0,20,0.00,CLR,SCT,0.00,0.0,WeatherDisplay:10.37,2014-01-16 10:23:00,
2014-01-16 02:28:00,55.2,15.9,30.24,NNE,28,0.0,0.0,21,0.00,CLR,SCT,0.00,0.0,WeatherDisplay:10.37,2014-01-16 10:28:00,
2014-01-16 02:33:00,54.3,16.2,30.24,NNE,28,0.0,0.0,22,0.00,CLR,SCT,0.00,0.0,WeatherDisplay:10.37,2014-01-16 10:33:00,
2014-01-16 02:38:00,53.3,17.4,30.24,NNE,28,0.0,0.0,24,0.00,CLR,SCT,0.00,0.0,WeatherDisplay:10.37,2014-01-16 10:38:00,
2014-01-16 02:43:00,52.8,16.9,30.24,NNE,28,2.3,2.3,24,0.00,CLR,SCT,0.00,0.0,WeatherDisplay:10.37,2014-01-16 10:43:00,
2014-01-16 02:48:00,52.5,18.6,30.24,NNW,346,1.0,0.0,26,0.00,CLR,SCT,0.00,0.0,WeatherDisplay:10.37,2014-01-16 10:48:00,
2014-01-16 02:53:00,53.2,17.3,30.23,NE,50,1.2,1.2,24,0.00,CLR,SCT,0.00,0.0,WeatherDisplay:10.37,2014-01-16 10:53:00,
2014-01-16 02:58:00,54.3,16.2,30.23,NW,319,2.3,2.3,22,0.00,CLR,SCT,0.00,0.0,WeatherDisplay:10.37,2014-01-16 10:58:00,
2014-01-16 03:03:00,54.3,17.2,30.23,NW,321,2.0,2.0,23,0.00,CLR,SCT,0.00,0.0,WeatherDisplay:10.37,2014-01-16 11:03:00,
2014-01-16 03:08:00,55.1,15.8,30.23,North,5,3.5,3.5,21,0.00,CLR,SCT,0.00,0.0,WeatherDisplay:10.37,2014-01-16 11:08:00,
2014-01-16 03:13:00,55.6,15.1,30.23,WNW,301,3.5,3.5,20,0.00,CLR,SCT,0.00,0.0,WeatherDisplay:10.37,2014-01-16 11:13:00,
2014-01-16 03:18:00,56.0,15.4,30.23,West,261,2.3,2.3,20,0.00,CLR,SCT,0.00,0.0,WeatherDisplay:10.37,2014-01-16 11:18:00,
2014-01-16 03:23:00,57.2,15.2,30.23,East,87,2.3,2.3,19,0.00,CLR,SCT,0.00,0.0,WeatherDisplay:10.37,2014-01-16 11:23:00,
2014-01-16 03:28:00,57.1,13.9,30.23,SSW,201,2.3,0.0,18,0.00,CLR,SCT,0.00,0.0,WeatherDisplay:10.37,2014-01-16 11:28:00,
2014-01-16 03:33:00,57.3,14.1,30.23,NNE,26,3.5,3.5,18,0.00,CLR,SCT,0.00,0.0,WeatherDisplay:10.37,2014-01-16 11:33:00,
2014-01-16 03:38:00,57.2,12.7,30.23,SW,225,3.5,3.5,17,0.00,CLR,SCT,0.00,0.0,WeatherDisplay:10.37,2014-01-16 11:38:00,
2014-01-16 03:43:00,57.7,14.4,30.23,SE,136,2.0,2.0,18,0.00,CLR,SCT,0.00,0.0,WeatherDisplay:10.37,2014-01-16 11:43:00,
2014-01-16 03:48:00,57.3,14.1,30.23,NW,322,2.3,2.3,18,0.00,CLR,SCT,0.00,0.0,WeatherDisplay:10.37,2014-01-16 11:48:00,
2014-01-16 03:53:00,56.4,15.8,30.23,NW,306,3.5,3.5,20,0.00,CLR,SCT,0.00,0.0,WeatherDisplay:10.37,2014-01-16 11:53:00,
2014-01-16 03:58:00,56.0,16.6,30.23,NW,306,3.5,3.5,21,0.00,CLR,SCT,0.00,0.0,WeatherDisplay:10.37,2014-01-16 11:58:00,
2014-01-16 04:03:00,55.6,15.1,30.23,WSW,250,3.5,3.5,20,0.00,CLR,SCT,0.00,0.0,WeatherDisplay:10.37,2014-01-16 12:03:00,
2014-01-16 04:08:00,57.3,14.1,30.23,NNW,333,3.5,3.5,18,0.00,CLR,SCT,0.00,0.0,WeatherDisplay:10.37,2014-01-16 12:08:00,
2014-01-16 04:13:00,56.9,13.8,30.23,NNW,333,1.2,0.0,18,0.00,CLR,SCT,0.00,0.0,WeatherDisplay:10.37,2014-01-16 12:13:00,
2014-01-16 04:18:00,56.2,15.6,30.23,NNW,333,1.2,1.2,20,0.00,CLR,SCT,0.00,0.0,WeatherDisplay:10.37,2014-01-16 12:18:00,
2014-01-16 04:23:00,56.8,12.4,30.23,NNE,33,3.5,0.0,17,0.00,CLR,SCT,0.00,0.0,WeatherDisplay:10.37,2014-01-16 12:23:00,
2014-01-16 04:28:00,56.3,15.7,30.23,NNE,33,1.2,0.0,20,0.00,CLR,SCT,0.00,0.0,WeatherDisplay:10.37,2014-01-16 12:28:00,
2014-01-16 04:33:00,56.1,15.5,30.23,NNW,336,1.2,0.0,20,0.00,CLR,SCT,0.00,0.0,WeatherDisplay:10.37,2014-01-16 12:33:00,
2014-01-16 04:38:00,55.5,16.1,30.23,NNW,334,2.3,2.3,21,0.00,CLR,SCT,0.00,0.0,WeatherDisplay:10.37,2014-01-16 12:38:00,
2014-01-16 04:43:00,54.3,17.2,30.23,WNW,302,2.3,0.0,23,0.00,CLR,SCT,0.00,0.0,WeatherDisplay:10.37,2014-01-16 12:43:00,
2014-01-16 04:48:00,53.7,17.7,30.23,WNW,302,0.0,0.0,24,0.00,CLR,SCT,0.00,0.0,WeatherDisplay:10.37,2014-01-16 12:48:00,
2014-01-16 04:53:00,53.5,15.5,30.23,NNW,333,1.2,0.0,22,0.00,CLR,SCT,0.00,0.0,WeatherDisplay:10.37,2014-01-16 12:53:00,
2014-01-16 04:58:00,53.7,14.6,30.23,East,94,1.2,1.2,21,0.00,CLR,SCT,0.00,0.0,WeatherDisplay:10.37,2014-01-16 12:58:00,
2014-01-16 05:03:00,53.5,16.6,30.23,East,89,1.2,1.2,23,0.00,CLR,SCT,0.00,0.0,WeatherDisplay:10.37,2014-01-16 13:03:00,
2014-01-16 05:08:00,52.6,17.7,30.23,East,88,1.0,0.0,25,0.00,CLR,SCT,0.00,0.0,WeatherDisplay:10.37,2014-01-16 13:08:00,
2014-01-16 05:13:00,52.4,16.6,30.23,NNW,333,2.3,2.3,24,0.00,CLR,SCT,0.00,0.0,WeatherDisplay:10.37,2014-01-16 13:13:00,
2014-01-16 05:18:00,52.2,17.4,30.23,NNW,333,1.0,1.0,25,0.00,CLR,SCT,0.00,0.0,WeatherDisplay:10.37,2014-01-16 13:18:00,
2014-01-16 05:23:00,52.4,16.6,30.23,NNW,333,2.0,2.0,24,0.00,CLR,SCT,0.00,0.0,WeatherDisplay:10.37,2014-01-16 13:23:00,
2014-01-16 05:28:00,55.0,14.6,30.24,NNW,340,2.3,2.3,20,0.00,CLR,SCT,0.00,0.0,WeatherDisplay:10.37,2014-01-16 13:28:00,
2014-01-16 05:33:00,54.4,17.3,30.23,SE,130,1.2,1.2,23,0.00,CLR,SCT,0.00,0.0,WeatherDisplay:10.37,2014-01-16 13:33:00,
2014-01-16 05:38:00,55.5,15.0,30.23,NNW,348,3.5,3.5,20,0.00,CLR,SCT,0.00,0.0,WeatherDisplay:10.37,2014-01-16 13:38:00,
2014-01-16 05:43:00,55.5,16.1,30.23,NNW,334,0.0,0.0,21,0.00,CLR,SCT,0.00,0.0,WeatherDisplay:10.37,2014-01-16 13:43:00,
2014-01-16 05:48:00,54.4,17.3,30.23,NNW,334,0.0,0.1,23,0.00,CLR,SCT,0.00,0.0,WeatherDisplay:10.37,2014-01-16 13:48:00,
2014-01-16 05:53:00,52.7,17.8,30.23,NNW,334,1.2,1.2,25,0.00,CLR,SCT,0.00,0.0,WeatherDisplay:10.37,2014-01-16 13:53:00,
2014-01-16 05:58:00,51.9,18.0,30.23,NNW,334,1.2,0.0,26,0.00,CLR,SCT,0.00,0.0,WeatherDisplay:10.37,2014-01-16 13:58:00,
2014-01-16 06:03:00,51.2,18.3,30.23,NNW,334,0.0,0.0,27,0.00,CLR,SCT,0.00,0.0,WeatherDisplay:10.37,2014-01-16 14:03:00,
2014-01-16 06:08:00,50.7,18.7,30.23,North,360,1.2,0.0,28,0.00,CLR,SCT,0.00,0.0,WeatherDisplay:10.37,2014-01-16 14:08:00,
2014-01-16 06:13:00,50.3,19.2,30.23,NNW,337,3.5,3.5,29,0.00,CLR,SCT,0.00,0.0,WeatherDisplay:10.37,2014-01-16 14:13:00,
2014-01-16 06:18:00,50.0,19.7,30.23,NNW,337,2.3,0.0,30,0.00,CLR,SCT,0.00,0.0,WeatherDisplay:10.37,2014-01-16 14:18:00,
2014-01-16 06:24:00,49.7,19.5,30.23,NNW,337,2.3,2.3,30,0.00,CLR,SCT,0.00,0.0,WeatherDisplay:10.37,2014-01-16 14:24:00,
2014-01-16 06:29:00,49.1,20.5,30.23,NNW,337,0.0,0.0,32,0.00,CLR,SCT,0.00,0.0,WeatherDisplay:10.37,2014-01-16 14:29:00,
2014-01-16 06:34:00,49.2,20.6,30.23,SW,219,5.8,5.8,32,0.00,CLR,SCT,0.00,0.0,WeatherDisplay:10.37,2014-01-16 14:34:00,
2014-01-16 06:39:00,50.2,18.3,30.23,North,5,3.5,3.5,28,0.00,CLR,SCT,0.00,0.0,WeatherDisplay:10.37,2014-01-16 14:39:00,
2014-01-16 06:44:00,50.5,17.7,30.24,North,5,2.3,2.3,27,0.00,CLR,SCT,0.00,0.0,WeatherDisplay:10.37,2014-01-16 14:44:00,
2014-01-16 06:49:00,50.3,18.4,30.23,North,5,2.3,2.3,28,0.00,CLR,SCT,0.00,0.0,WeatherDisplay:10.37,2014-01-16 14:49:00,
2014-01-16 06:54:00,50.2,18.3,30.23,NE,36,1.2,1.9,28,0.00,CLR,SCT,0.00,0.0,WeatherDisplay:10.37,2014-01-16 14:54:00,
2014-01-16 06:59:00,49.8,19.6,30.24,NE,52,3.5,3.5,30,0.00,CLR,SCT,0.00,0.0,WeatherDisplay:10.37,2014-01-16 14:59:00,
2014-01-16 07:04:00,49.5,20.1,30.24,NNW,335,1.2,1.2,31,0.00,CLR,SCT,0.00,0.0,WeatherDisplay:10.37,2014-01-16 15:04:00,
2014-01-16 07:09:00,49.0,21.1,30.23,NNW,338,0.0,0.0,33,0.00,CLR,SCT,0.00,0.0,WeatherDisplay:10.37,2014-01-16 15:09:00,
2014-01-16 07:14:00,48.8,20.9,30.24,NNW,339,1.2,1.2,33,0.00,CLR,SCT,0.00,0.0,WeatherDisplay:10.37,2014-01-16 15:14:00,
2014-01-16 07:19:00,48.8,19.5,30.23,NNW,339,0.0,0.0,31,0.00,SKC,SCT,0.00,0.0,WeatherDisplay:10.37,2014-01-16 15:19:00,
2014-01-16 07:24:00,48.7,20.1,30.24,NE,44,3.5,3.5,32,0.00,SKC,SCT,0.00,0.0,WeatherDisplay:10.37,2014-01-16 15:24:00,
2014-01-16 07:29:00,49.4,18.4,30.24,NNE,20,4.6,4.6,29,0.00,SKC,SCT,0.00,0.0,WeatherDisplay:10.37,2014-01-16 15:29:00,
2014-01-16 07:34:00,49.9,18.9,30.24,NNW,340,1.2,1.2,29,0.00,SKC,SCT,0.00,5.2,WeatherDisplay:10.37,2014-01-16 15:34:00,
2014-01-16 07:39:00,50.0,18.9,30.24,ESE,115,1.2,1.2,29,0.00,SKC,SCT,0.00,7.2,WeatherDisplay:10.37,2014-01-16 15:39:00,
2014-01-16 07:44:00,50.2,18.3,30.24,East,90,1.2,0.0,28,0.00,SKC,SCT,0.00,9.3,WeatherDisplay:10.37,2014-01-16 15:44:00,
2014-01-16 07:49:00,50.6,19.5,30.24,WSW,255,0.0,0.0,29,0.00,SKC,SCT,0.00,11.3,WeatherDisplay:10.37,2014-01-16 15:49:00,
2014-01-16 07:54:00,51.3,18.4,30.24,WSW,254,0.0,0.0,27,0.00,SKC,SCT,0.00,12.4,WeatherDisplay:10.37,2014-01-16 15:54:00,
2014-01-16 07:59:00,52.3,17.5,30.24,NNW,336,2.3,2.3,25,0.00,SKC,SCT,0.00,12.4,WeatherDisplay:10.37,2014-01-16 15:59:00,
2014-01-16 08:04:00,51.8,19.7,30.24,NNW,336,1.2,1.2,28,0.00,SKC,SCT,0.00,14.4,WeatherDisplay:10.37,2014-01-16 16:04:00,
2014-01-16 08:09:00,51.6,20.3,30.24,NNW,336,3.5,3.5,29,0.00,SKC,SCT,0.00,16.5,WeatherDisplay:10.37,2014-01-16 16:09:00,
2014-01-16 08:14:00,52.4,20.2,30.25,NNW,336,0.0,0.0,28,0.00,SKC,SCT,0.00,18.5,WeatherDisplay:10.37,2014-01-16 16:14:00,
2014-01-16 08:19:00,53.1,20.8,30.25,NNW,336,0.0,0.0,28,0.00,SKC,SCT,0.00,21.6,WeatherDisplay:10.37,2014-01-16 16:19:00,
2014-01-16 08:24:00,53.8,20.6,30.25,South,176,1.2,0.0,27,0.00,SKC,SCT,0.00,23.7,WeatherDisplay:10.37,2014-01-16 16:24:00,
2014-01-16 08:29:00,53.8,19.7,30.25,South,176,0.0,0.0,26,0.00,SKC,SCT,0.00,26.8,WeatherDisplay:10.37,2014-01-16 16:29:00,
2014-01-16 08:34:00,53.9,21.5,30.25,NE,40,3.5,3.5,28,0.00,SKC,SCT,0.00,30.9,WeatherDisplay:10.37,2014-01-16 16:34:00,
2014-01-16 08:39:00,54.1,22.5,30.26,NE,49,1.2,1.2,29,0.00,SKC,SCT,0.00,34.0,WeatherDisplay:10.37,2014-01-16 16:39:00,
2014-01-16 08:44:00,54.7,23.0,30.26,NE,49,2.3,2.3,29,0.00,SKC,SCT,0.00,36.0,WeatherDisplay:10.37,2014-01-16 16:44:00,
2014-01-16 08:49:00,54.8,23.1,30.26,WSW,253,4.0,4.0,29,0.00,SKC,SCT,0.00,38.1,WeatherDisplay:10.37,2014-01-16 16:49:00,
2014-01-16 08:54:00,56.0,20.6,30.26,NNW,341,0.0,0.0,25,0.00,SKC,SCT,0.00,40.2,WeatherDisplay:10.37,2014-01-16 16:54:00,
2014-01-16 08:59:00,56.9,23.2,30.27,NNW,341,0.0,0.0,27,0.00,SKC,SCT,0.00,48.4,WeatherDisplay:10.37,2014-01-16 16:59:00,
2014-01-16 09:04:00,57.2,24.3,30.27,North,355,2.3,2.3,28,0.00,SKC,SCT,0.00,72.1,WeatherDisplay:10.37,2014-01-16 17:04:00,
2014-01-16 09:09:00,58.0,24.2,30.27,North,5,0.0,0.0,27,0.00,SKC,SCT,0.00,93.7,WeatherDisplay:10.37,2014-01-16 17:09:00,
2014-01-16 09:14:00,58.9,24.9,30.27,North,5,2.3,2.3,27,0.00,SKC,SCT,0.00,260.6,WeatherDisplay:10.37,2014-01-16 17:14:00,
2014-01-16 09:19:00,59.4,25.4,30.27,NNE,28,2.3,2.3,27,0.00,SKC,SCT,0.00,275.0,WeatherDisplay:10.37,2014-01-16 17:19:00,
2014-01-16 09:24:00,60.2,26.1,30.27,NNE,28,0.0,0.0,27,0.00,SKC,SCT,0.00,286.3,WeatherDisplay:10.37,2014-01-16 17:24:00,
2014-01-16 09:29:00,61.0,27.6,30.27,NNE,28,0.0,0.0,28,0.00,SKC,SCT,0.00,300.8,WeatherDisplay:10.37,2014-01-16 17:29:00,
2014-01-16 09:34:00,61.9,26.6,30.27,NNE,28,0.0,0.0,26,0.00,SKC,SCT,0.00,313.1,WeatherDisplay:10.37,2014-01-16 17:34:00,
2014-01-16 09:39:00,62.7,26.3,30.27,South,184,3.5,3.5,25,0.00,SKC,SCT,0.00,322.4,WeatherDisplay:10.37,2014-01-16 17:39:00,
2014-01-16 09:44:00,64.0,26.4,30.27,NW,305,0.0,0.2,24,0.00,SKC,SCT,0.00,334.8,WeatherDisplay:10.37,2014-01-16 17:44:00,
2014-01-16 09:49:00,64.0,29.3,30.27,WNW,300,1.2,1.2,27,0.00,SKC,SCT,0.00,348.1,WeatherDisplay:10.37,2014-01-16 17:49:00,
2014-01-16 09:54:00,65.3,29.5,30.27,WNW,299,2.3,2.3,26,0.00,SKC,SCT,0.00,358.4,WeatherDisplay:10.37,2014-01-16 17:54:00,
2014-01-16 09:59:00,67.2,24.7,30.27,WNW,300,0.0,0.0,20,0.00,SKC,SCT,0.00,370.8,WeatherDisplay:10.37,2014-01-16 17:59:00,
2014-01-16 10:05:00,67.7,27.5,30.27,NW,314,1.2,1.2,22,0.00,SKC,SCT,0.00,382.1,WeatherDisplay:10.37,2014-01-16 18:05:00,
2014-01-16 10:10:00,68.0,20.1,30.27,NW,309,0.0,0.0,16,0.00,SKC,SCT,0.00,389.3,WeatherDisplay:10.37,2014-01-16 18:10:00,
2014-01-16 10:15:00,68.6,22.0,30.27,NW,309,0.0,0.0,17,0.00,SKC,SCT,0.00,401.7,WeatherDisplay:10.37,2014-01-16 18:15:00,
2014-01-16 10:20:00,69.7,19.9,30.27,WNW,294,1.2,0.0,15,0.00,SKC,SCT,0.00,408.9,WeatherDisplay:10.37,2014-01-16 18:20:00,
2014-01-16 10:25:00,69.8,23.0,30.27,WNW,291,0.0,0.0,17,0.00,SKC,SCT,0.00,420.2,WeatherDisplay:10.37,2014-01-16 18:25:00,
2014-01-16 10:30:00,70.6,17.3,30.27,SE,143,0.0,5.0,13,0.00,SKC,SCT,0.00,429.5,WeatherDisplay:10.37,2014-01-16 18:30:00,
2014-01-16 10:35:00,71.7,14.3,30.27,SE,146,2.3,2.3,11,0.00,SKC,SCT,0.00,436.7,WeatherDisplay:10.37,2014-01-16 18:35:00,
2014-01-16 10:40:00,72.0,16.6,30.27,SSE,148,3.5,3.5,12,0.00,SKC,SCT,0.00,443.9,WeatherDisplay:10.37,2014-01-16 18:40:00,
2014-01-16 10:45:00,71.8,16.4,30.27,SSE,161,1.0,3.0,12,0.00,SKC,SCT,0.00,305.9,WeatherDisplay:10.37,2014-01-16 18:45:00,
2014-01-16 10:50:00,72.3,14.8,30.27,North,355,3.5,3.5,11,0.00,SKC,SCT,0.00,324.4,WeatherDisplay:10.37,2014-01-16 18:50:00,
2014-01-16 10:55:00,72.4,16.9,30.26,SSE,161,1.0,3.0,12,0.00,SKC,SCT,0.00,461.4,WeatherDisplay:10.37,2014-01-16 18:55:00,
2014-01-16 11:00:00,72.5,16.9,30.26,SSE,156,0.0,4.0,12,0.00,SKC,SCT,0.00,474.8,WeatherDisplay:10.37,2014-01-16 19:00:00,
2014-01-16 11:05:00,73.5,17.7,30.26,North,355,5.0,5.0,12,0.00,SKC,SCT,0.00,482.0,WeatherDisplay:10.37,2014-01-16 19:05:00,
2014-01-16 11:10:00,74.2,14.1,30.26,NNE,22,3.0,3.0,10,0.00,SKC,SCT,0.00,485.1,WeatherDisplay:10.37,2014-01-16 19:10:00,
2014-01-16 11:15:00,74.2,14.1,30.26,ENE,63,2.0,6.0,10,0.00,SKC,SCT,0.00,492.3,WeatherDisplay:10.37,2014-01-16 19:15:00,
2014-01-16 11:20:00,74.0,13.9,30.25,NNE,27,3.5,3.5,10,0.00,SKC,SCT,0.00,497.5,WeatherDisplay:10.37,2014-01-16 19:20:00,
2014-01-16 11:25:00,74.4,14.2,30.25,NE,49,1.0,9.0,10,0.00,SKC,SCT,0.00,501.6,WeatherDisplay:10.37,2014-01-16 19:25:00,
2014-01-16 11:30:00,74.5,14.3,30.25,NE,38,2.0,7.0,10,0.00,SKC,SCT,0.00,504.7,WeatherDisplay:10.37,2014-01-16 19:30:00,
2014-01-16 11:35:00,74.9,14.6,30.25,NNE,18,3.5,3.5,10,0.00,SKC,SCT,0.00,508.8,WeatherDisplay:10.37,2014-01-16 19:35:00,
2014-01-16 11:40:00,75.0,16.9,30.25,NNW,336,4.0,4.0,11,0.00,SKC,SCT,0.00,510.9,WeatherDisplay:10.37,2014-01-16 19:40:00,
2014-01-16 11:45:00,75.3,14.9,30.24,NE,47,1.0,7.0,10,0.00,SKC,SCT,0.00,516.0,WeatherDisplay:10.37,2014-01-16 19:45:00,
2014-01-16 11:50:00,75.3,14.9,30.24,NE,38,8.1,8.1,10,0.00,SKC,SCT,0.00,518.1,WeatherDisplay:10.37,2014-01-16 19:50:00,
2014-01-16 11:55:00,75.2,14.8,30.24,NE,46,2.0,5.0,10,0.00,SKC,SCT,0.00,519.1,WeatherDisplay:10.37,2014-01-16 19:55:00,
2014-01-16 12:00:00,75.8,12.9,30.23,NE,55,9.2,9.2,9,0.00,SKC,SCT,0.00,521.2,WeatherDisplay:10.37,2014-01-16 20:00:00,
2014-01-16 12:05:00,76.2,15.6,30.22,NNW,331,3.5,3.5,10,0.00,SKC,SCT,0.00,523.2,WeatherDisplay:10.37,2014-01-16 20:05:00,
2014-01-16 12:10:00,76.3,15.7,30.22,NNE,21,2.0,7.0,10,0.00,SKC,SCT,0.00,523.2,WeatherDisplay:10.37,2014-01-16 20:10:00,
2014-01-16 12:15:00,76.0,13.0,30.22,NNE,32,2.0,7.0,9,0.00,SKC,SCT,0.00,525.3,WeatherDisplay:10.37,2014-01-16 20:15:00,
2014-01-16 12:20:00,76.8,16.1,30.21,SE,128,4.6,4.6,10,0.00,SKC,SCT,0.00,525.3,WeatherDisplay:10.37,2014-01-16 20:20:00,
2014-01-16 12:25:00,76.7,16.0,30.21,NNE,21,1.0,7.0,10,0.00,SKC,SCT,0.00,527.4,WeatherDisplay:10.37,2014-01-16 20:25:00,
2014-01-16 12:30:00,76.7,13.6,30.21,NNE,31,2.0,6.0,9,0.00,SKC,SCT,0.00,527.4,WeatherDisplay:10.37,2014-01-16 20:30:00,
2014-01-16 12:35:00,76.6,13.5,30.20,North,5,9.2,9.2,9,0.00,SKC,SCT,0.00,525.3,WeatherDisplay:10.37,2014-01-16 20:35:00,
2014-01-16 12:40:00,76.9,13.7,30.20,NNE,28,3.0,8.0,9,0.00,SKC,SCT,0.00,525.3,WeatherDisplay:10.37,2014-01-16 20:40:00,
2014-01-16 12:45:00,76.7,13.6,30.19,NE,34,3.5,3.5,9,0.00,SKC,SCT,0.00,521.2,WeatherDisplay:10.37,2014-01-16 20:45:00,
2014-01-16 12:50:00,76.7,13.6,30.19,NE,42,2.0,7.0,9,0.00,SKC,SCT,0.00,521.2,WeatherDisplay:10.37,2014-01-16 20:50:00,
2014-01-16 12:55:00,77.3,14.0,30.19,North,5,4.6,4.6,9,0.00,SKC,SCT,0.00,217.3,WeatherDisplay:10.37,2014-01-16 20:55:00,
2014-01-16 13:00:00,77.3,14.0,30.18,NE,47,10.0,10.0,9,0.00,SKC,SCT,0.00,217.3,WeatherDisplay:10.37,2014-01-16 21:00:00,
2014-01-16 13:05:00,77.0,11.1,30.18,NE,37,3.0,10.0,8,0.00,SKC,SCT,0.00,506.8,WeatherDisplay:10.37,2014-01-16 21:05:00,
2014-01-16 13:10:00,77.6,14.2,30.18,NE,35,1.0,12.0,9,0.00,SKC,SCT,0.00,503.7,WeatherDisplay:10.37,2014-01-16 21:10:00,
2014-01-16 13:15:00,77.5,14.2,30.18,NNE,26,3.0,8.0,9,0.00,SKC,SCT,0.00,499.6,WeatherDisplay:10.37,2014-01-16 21:15:00,
2014-01-16 13:20:00,77.3,14.0,30.18,NNE,32,2.0,12.0,9,0.00,SKC,SCT,0.00,131.8,WeatherDisplay:10.37,2014-01-16 21:20:00,
2014-01-16 13:25:00,77.5,16.6,30.17,ENE,57,4.6,4.6,10,0.00,SKC,SCT,0.00,43.3,WeatherDisplay:10.37,2014-01-16 21:25:00,
2014-01-16 13:30:00,77.3,14.0,30.17,NNE,26,3.5,3.5,9,0.00,SKC,SCT,0.00,241.0,WeatherDisplay:10.37,2014-01-16 21:30:00,
2014-01-16 13:35:00,77.5,14.2,30.17,WNW,298,5.0,5.0,9,0.00,SKC,SCT,0.00,67.0,WeatherDisplay:10.37,2014-01-16 21:35:00,
2014-01-16 13:40:00,77.3,14.0,30.17,WNW,292,3.5,3.5,9,0.00,SKC,SCT,0.00,202.9,WeatherDisplay:10.37,2014-01-16 21:40:00,
2014-01-16 13:45:00,77.1,16.3,30.17,North,351,1.0,5.0,10,0.00,SKC,SCT,0.00,454.2,WeatherDisplay:10.37,2014-01-16 21:45:00,
2014-01-16 13:50:00,76.9,16.1,30.17,ENE,74,3.5,3.5,10,0.00,SKC,SCT,0.00,79.3,WeatherDisplay:10.37,2014-01-16 21:50:00,
2014-01-16 13:55:00,77.2,16.4,30.17,North,355,3.5,3.5,10,0.00,SKC,SCT,0.00,255.4,WeatherDisplay:10.37,2014-01-16 21:55:00,
2014-01-16 14:00:00,77.1,13.9,30.16,North,8,3.0,7.0,9,0.00,SKC,SCT,0.00,25.8,WeatherDisplay:10.37,2014-01-16 22:00:00,
2014-01-16 14:05:00,76.8,13.7,30.16,NNE,13,3.0,7.0,9,0.00,SKC,SCT,0.00,25.8,WeatherDisplay:10.37,2014-01-16 22:05:00,
2014-01-16 14:10:00,75.8,15.3,30.16,NNE,22,4.6,4.6,10,0.00,SKC,SCT,0.00,23.7,WeatherDisplay:10.37,2014-01-16 22:10:00,
2014-01-16 14:15:00,75.3,17.1,30.16,North,357,2.0,7.0,11,0.00,SKC,SCT,0.00,23.7,WeatherDisplay:10.37,2014-01-16 22:15:00,
2014-01-16 14:20:00,75.2,14.8,30.16,North,360,3.0,7.0,10,0.00,SKC,SCT,0.00,23.7,WeatherDisplay:10.37,2014-01-16 22:20:00,
2014-01-16 14:25:00,74.9,14.6,30.16,North,0,2.0,7.0,10,0.00,SKC,SCT,0.00,21.6,WeatherDisplay:10.37,2014-01-16 22:25:00,
2014-01-16 14:30:00,74.5,14.3,30.16,NNW,331,3.5,3.5,10,0.00,SKC,SCT,0.00,21.6,WeatherDisplay:10.37,2014-01-16 22:30:00,
2014-01-16 14:35:00,74.1,11.6,30.16,NNW,342,4.6,4.6,9,0.00,SKC,SCT,0.00,21.6,WeatherDisplay:10.37,2014-01-16 22:35:00,
2014-01-16 14:40:00,74.3,11.8,30.16,North,358,3.0,9.0,9,0.00,SKC,SCT,0.00,21.6,WeatherDisplay:10.37,2014-01-16 22:40:00,
2014-01-16 14:45:00,74.3,14.1,30.16,North,1,2.0,5.0,10,0.00,SKC,SCT,0.00,19.6,WeatherDisplay:10.37,2014-01-16 22:45:00,
2014-01-16 14:50:00,74.2,14.1,30.16,NW,324,3.5,3.5,10,0.00,SKC,SCT,0.00,19.6,WeatherDisplay:10.37,2014-01-16 22:50:00,
2014-01-16 14:55:00,74.2,14.1,30.16,NNE,15,2.0,7.0,10,0.00,SKC,SCT,0.00,19.6,WeatherDisplay:10.37,2014-01-16 22:55:00,
2014-01-16 15:00:00,74.1,14.0,30.16,North,5,2.0,5.0,10,0.00,SKC,SCT,0.00,19.6,WeatherDisplay:10.37,2014-01-16 23:00:00,
2014-01-16 15:05:00,74.0,13.9,30.16,NNW,336,4.6,4.6,10,0.00,SKC,SCT,0.00,19.6,WeatherDisplay:10.37,2014-01-16 23:05:00,
2014-01-16 15:10:00,74.0,16.1,30.16,NNE,25,2.3,2.3,11,0.00,SKC,SCT,0.00,18.5,WeatherDisplay:10.37,2014-01-16 23:10:00,
2014-01-16 15:15:00,73.9,16.0,30.16,NNE,12,1.0,9.0,11,0.00,SKC,SCT,0.00,18.5,WeatherDisplay:10.37,2014-01-16 23:15:00,
2014-01-16 15:20:00,73.7,17.9,30.16,NNE,32,1.2,1.2,12,0.00,SKC,SCT,0.00,18.5,WeatherDisplay:10.37,2014-01-16 23:20:00,
2014-01-16 15:25:00,73.6,15.8,30.16,NNE,32,4.6,4.6,11,0.00,SKC,SCT,0.00,19.6,WeatherDisplay:10.37,2014-01-16 23:25:00,
2014-01-16 15:30:00,73.9,16.0,30.15,NNW,338,4.6,4.6,11,0.00,SKC,SCT,0.00,16.5,WeatherDisplay:10.37,2014-01-16 23:30:00,
2014-01-16 15:35:00,73.9,16.0,30.16,North,350,3.5,3.5,11,0.00,SKC,SCT,0.00,16.5,WeatherDisplay:10.37,2014-01-16 23:35:00,
2014-01-16 15:40:00,74.0,13.9,30.15,NNE,17,2.0,8.0,10,0.00,SKC,SCT,0.00,16.5,WeatherDisplay:10.37,2014-01-16 23:40:00,
2014-01-16 15:45:00,74.0,16.1,30.15,NNE,22,3.5,3.5,11,0.00,SKC,SCT,0.00,21.6,WeatherDisplay:10.37,2014-01-16 23:45:00,
2014-01-16 15:50:00,73.3,15.5,30.15,North,4,1.0,4.0,11,0.00,SKC,SCT,0.00,16.5,WeatherDisplay:10.37,2014-01-16 23:50:00,
2014-01-16 15:55:00,73.3,15.6,30.15,North,349,1.0,7.0,11,0.00,SKC,SCT,0.00,14.4,WeatherDisplay:10.37,2014-01-16 23:55:00,
2014-01-16 16:00:00,73.4,13.5,30.15,NNE,21,5.8,5.8,10,0.00,SKC,SCT,0.00,14.4,WeatherDisplay:10.37,2014-01-17 00:00:00,
2014-01-16 16:05:00,73.5,13.5,30.15,NNE,24,2.0,7.0,10,0.00,SKC,SCT,0.00,14.4,WeatherDisplay:10.37,2014-01-17 00:05:00,
2014-01-16 16:10:00,73.1,15.4,30.15,NE,48,8.1,8.1,11,0.00,SKC,SCT,0.00,12.4,WeatherDisplay:10.37,2014-01-17 00:10:00,
2014-01-16 16:15:00,72.6,15.0,30.15,NNE,27,3.0,3.0,11,0.00,SKC,SCT,0.00,12.4,WeatherDisplay:10.37,2014-01-17 00:15:00,
2014-01-16 16:20:00,72.7,15.1,30.15,NW,315,4.6,4.6,11,0.00,SKC,SCT,0.00,11.3,WeatherDisplay:10.37,2014-01-17 00:20:00,
2014-01-16 16:25:00,72.3,14.8,30.15,NW,311,4.6,4.6,11,0.00,SKC,SCT,0.00,11.3,WeatherDisplay:10.37,2014-01-17 00:25:00,
2014-01-16 16:30:00,72.2,14.7,30.15,North,6,0.0,6.0,11,0.00,SKC,SCT,0.00,11.3,WeatherDisplay:10.37,2014-01-17 00:30:00,
2014-01-16 16:35:00,72.1,12.5,30.15,NNE,33,5.8,5.8,10,0.00,SKC,SCT,0.00,9.3,WeatherDisplay:10.37,2014-01-17 00:35:00,
2014-01-16 16:40:00,71.9,14.5,30.15,NE,39,2.0,9.0,11,0.00,SKC,SCT,0.00,9.3,WeatherDisplay:10.37,2014-01-17 00:40:00,
2014-01-16 16:45:00,71.5,16.2,30.15,NNE,24,2.0,7.0,12,0.00,SKC,SCT,0.00,7.2,WeatherDisplay:10.37,2014-01-17 00:45:00,
2014-01-16 16:50:00,70.9,17.5,30.15,NNE,17,2.3,2.7,13,0.00,SKC,SCT,0.00,5.2,WeatherDisplay:10.37,2014-01-17 00:50:00,
2014-01-16 16:55:00,70.7,15.5,30.15,NE,34,6.9,6.9,12,0.00,SKC,SCT,0.00,5.2,WeatherDisplay:10.37,2014-01-17 00:55:00,
2014-01-16 17:00:00,70.8,17.4,30.15,NNE,14,1.0,8.0,13,0.00,SKC,SCT,0.00,0.0,WeatherDisplay:10.37,2014-01-17 01:00:00,
2014-01-16 17:05:00,70.6,17.3,30.15,NNE,14,3.5,3.5,13,0.00,SKC,SCT,0.00,0.0,WeatherDisplay:10.37,2014-01-17 01:05:00,
2014-01-16 17:10:00,69.9,16.8,30.15,NNE,22,1.0,4.0,13,0.00,SKC,SCT,0.00,0.0,WeatherDisplay:10.37,2014-01-17 01:10:00,
2014-01-16 17:15:00,69.9,16.8,30.15,NNE,12,3.5,3.5,13,0.00,SKC,SCT,0.00,0.0,WeatherDisplay:10.37,2014-01-17 01:15:00,
2014-01-16 17:20:00,69.5,18.2,30.15,NNE,28,4.6,4.6,14,0.00,SKC,SCT,0.00,0.0,WeatherDisplay:10.37,2014-01-17 01:20:00,
2014-01-16 17:25:00,69.6,16.5,30.15,ENE,62,3.0,8.0,13,0.00,SKC,SCT,0.00,0.0,WeatherDisplay:10.37,2014-01-17 01:25:00,
2014-01-16 17:30:00,69.7,16.6,30.15,NNW,348,9.2,9.2,13,0.00,SKC,SCT,0.00,0.0,WeatherDisplay:10.37,2014-01-17 01:30:00,
2014-01-16 17:35:00,69.9,16.7,30.15,NNE,15,2.0,9.0,13,0.00,SKC,SCT,0.00,0.0,WeatherDisplay:10.37,2014-01-17 01:35:00,
2014-01-16 17:40:00,69.9,16.8,30.15,NNE,31,5.0,10.0,13,0.00,SKC,SCT,0.00,0.0,WeatherDisplay:10.37,2014-01-17 01:40:00,
2014-01-16 17:45:00,70.1,16.9,30.15,NE,34,5.0,12.0,13,0.00,SKC,SCT,0.00,0.0,WeatherDisplay:10.37,2014-01-17 01:45:00,
2014-01-16 17:50:00,70.2,17.0,30.15,NE,46,11.5,11.5,13,0.00,SKC,SCT,0.00,0.0,WeatherDisplay:10.37,2014-01-17 01:50:00,
2014-01-16 17:55:00,70.3,15.2,30.15,North,11,3.0,12.0,12,0.00,SKC,SCT,0.00,0.0,WeatherDisplay:10.37,2014-01-17 01:55:00,
2014-01-16 18:00:00,69.9,16.8,30.15,SE,138,11.5,11.5,13,0.00,SKC,SCT,0.00,0.0,WeatherDisplay:10.37,2014-01-17 02:00:00,
2014-01-16 18:05:00,69.6,16.5,30.15,NNE,33,3.0,10.0,13,0.00,SKC,SCT,0.00,0.0,WeatherDisplay:10.37,2014-01-17 02:05:00,
2014-01-16 18:10:00,69.6,16.6,30.15,NE,40,6.0,12.0,13,0.00,SKC,SCT,0.00,0.0,WeatherDisplay:10.37,2014-01-17 02:10:00,
2014-01-16 18:15:00,69.8,16.7,30.15,NNE,29,3.0,16.0,13,0.00,SKC,SCT,0.00,0.0,WeatherDisplay:10.37,2014-01-17 02:15:00,
2014-01-16 18:20:00,69.8,16.7,30.15,SSE,153,9.0,9.0,13,0.00,SKC,SCT,0.00,0.0,WeatherDisplay:10.37,2014-01-17 02:20:00,
2014-01-16 18:25:00,69.7,16.6,30.15,ENE,73,5.8,5.8,13,0.00,SKC,SCT,0.00,0.0,WeatherDisplay:10.37,2014-01-17 02:25:00,
2014-01-16 18:30:00,69.1,17.8,30.15,NNW,346,6.9,6.9,14,0.00,SKC,SCT,0.00,0.0,WeatherDisplay:10.37,2014-01-17 02:30:00,
2014-01-16 18:35:00,69.2,16.2,30.15,North,7,2.0,12.0,13,0.00,SKC,SCT,0.00,0.0,WeatherDisplay:10.37,2014-01-17 02:35:00,
2014-01-16 18:40:00,69.0,16.0,30.14,NE,45,10.4,10.4,13,0.00,SKC,SCT,0.00,0.0,WeatherDisplay:10.37,2014-01-17 02:40:00,
2014-01-16 18:45:00,69.0,16.0,30.15,ENE,59,1.0,13.0,13,0.00,SKC,SCT,0.00,0.0,WeatherDisplay:10.37,2014-01-17 02:45:00,
2014-01-16 18:50:00,68.6,17.4,30.14,NW,317,5.0,5.1,14,0.00,SKC,SCT,0.00,0.0,WeatherDisplay:10.37,2014-01-17 02:50:00,
2014-01-16 18:55:00,68.7,15.8,30.14,NE,41,7.0,7.0,13,0.00,SKC,SCT,0.00,0.0,WeatherDisplay:10.37,2014-01-17 02:55:00,
2014-01-16 19:00:00,68.8,14.1,30.14,NE,41,5.0,15.0,12,0.00,SKC,SCT,0.00,0.0,WeatherDisplay:10.37,2014-01-17 03:00:00,
2014-01-16 19:05:00,69.1,14.3,30.14,NE,38,5.0,12.0,12,0.00,CLR,SCT,0.00,0.0,WeatherDisplay:10.37,2014-01-17 03:05:00,
2014-01-16 19:10:00,69.0,14.2,30.15,NW,322,7.0,7.0,12,0.00,CLR,SCT,0.00,0.0,WeatherDisplay:10.37,2014-01-17 03:10:00,
2014-01-16 19:15:00,68.9,16.0,30.15,North,5,7.0,7.0,13,0.00,CLR,SCT,0.00,0.0,WeatherDisplay:10.37,2014-01-17 03:15:00,
2014-01-16 19:20:00,68.7,14.0,30.14,North,11,3.5,3.5,12,0.00,CLR,SCT,0.00,0.0,WeatherDisplay:10.37,2014-01-17 03:20:00,
2014-01-16 19:25:00,68.3,13.7,30.14,NNE,19,9.2,9.2,12,0.00,CLR,SCT,0.00,0.0,WeatherDisplay:10.37,2014-01-17 03:25:00,
2014-01-16 19:30:00,68.3,13.7,30.14,NNE,33,5.0,13.0,12,0.00,CLR,SCT,0.00,0.0,WeatherDisplay:10.37,2014-01-17 03:30:00,
2014-01-16 19:35:00,68.0,15.3,30.14,North,355,4.6,4.6,13,0.00,CLR,SCT,0.00,0.0,WeatherDisplay:10.37,2014-01-17 03:35:00,
2014-01-16 19:40:00,67.4,14.8,30.14,NNE,13,4.6,4.6,13,0.00,CLR,SCT,0.00,0.0,WeatherDisplay:10.37,2014-01-17 03:40:00,
2014-01-16 19:45:00,67.3,14.7,30.14,North,7,2.0,8.0,13,0.00,CLR,SCT,0.00,0.0,WeatherDisplay:10.37,2014-01-17 03:45:00,
2014-01-16 19:50:00,67.4,13.0,30.14,NNE,33,5.8,5.8,12,0.00,CLR,SCT,0.00,0.0,WeatherDisplay:10.37,2014-01-17 03:50:00,
2014-01-16 19:55:00,67.5,13.0,30.14,North,5,1.0,5.0,12,0.00,CLR,SCT,0.00,0.0,WeatherDisplay:10.37,2014-01-17 03:55:00,
2014-01-16 20:00:00,67.1,12.7,30.14,NNE,13,1.0,5.0,12,0.00,CLR,SCT,0.00,0.0,WeatherDisplay:10.37,2014-01-17 04:00:00,
2014-01-16 20:05:00,67.3,14.7,30.15,SSE,153,3.5,3.5,13,0.00,CLR,SCT,0.00,0.0,WeatherDisplay:10.37,2014-01-17 04:05:00,
2014-01-16 20:10:00,67.7,13.2,30.15,NNE,31,6.9,6.9,12,0.00,CLR,SCT,0.00,0.0,WeatherDisplay:10.37,2014-01-17 04:10:00,
2014-01-16 20:15:00,67.6,13.1,30.14,NE,50,8.1,8.1,12,0.00,CLR,SCT,0.00,0.0,WeatherDisplay:10.37,2014-01-17 04:15:00,
2014-01-16 20:20:00,68.0,13.4,30.15,SSE,161,10.4,10.4,12,0.00,CLR,SCT,0.00,0.0,WeatherDisplay:10.37,2014-01-17 04:20:00,
2014-01-16 20:25:00,68.1,13.5,30.15,NNE,18,1.0,10.0,12,0.00,CLR,SCT,0.00,0.0,WeatherDisplay:10.37,2014-01-17 04:25:00,
2014-01-16 20:30:00,67.4,18.1,30.15,WNW,296,1.0,1.0,15,0.00,CLR,SCT,0.00,0.0,WeatherDisplay:10.37,2014-01-17 04:30:00,
2014-01-16 20:35:00,66.1,17.0,30.15,NW,323,0.0,0.5,15,0.00,CLR,SCT,0.00,0.0,WeatherDisplay:10.37,2014-01-17 04:35:00,
2014-01-16 20:40:00,65.0,19.1,30.15,NW,315,0.0,2.0,17,0.00,CLR,SCT,0.00,0.0,WeatherDisplay:10.37,2014-01-17 04:40:00,
2014-01-16 20:45:00,64.3,17.1,30.15,NW,315,0.0,0.0,16,0.00,CLR,SCT,0.00,0.0,WeatherDisplay:10.37,2014-01-17 04:45:00,
2014-01-16 20:50:00,63.6,17.9,30.15,NW,314,1.2,1.2,17,0.00,CLR,SCT,0.00,0.0,WeatherDisplay:10.37,2014-01-17 04:50:00,
2014-01-16 20:55:00,63.3,16.3,30.15,North,358,1.0,3.0,16,0.00,CLR,SCT,0.00,0.0,WeatherDisplay:10.37,2014-01-17 04:55:00,
2014-01-16 21:00:00,62.6,18.4,30.15,NNE,28,2.3,2.3,18,0.00,CLR,SCT,0.00,0.0,WeatherDisplay:10.37,2014-01-17 05:00:00,
2014-01-16 21:01:00,62.5,18.4,30.15,NNE,22,3.5,3.5,18,0.00,CLR,SCT,0.00,0.0,WeatherDisplay:10.37,2014-01-17 05:01:00,
2014-01-16 21:07:00,62.0,18.0,30.15,NNE,27,4.6,4.6,18,0.00,CLR,SCT,0.00,0.0,WeatherDisplay:10.37,2014-01-17 05:07:00,
2014-01-16 21:12:00,61.8,17.8,30.15,South,171,2.3,2.3,18,0.00,CLR,SCT,0.00,0.0,WeatherDisplay:10.37,2014-01-17 05:12:00,
2014-01-16 21:17:00,61.5,17.5,30.15,NNE,26,3.5,3.5,18,0.00,CLR,SCT,0.00,0.0,WeatherDisplay:10.37,2014-01-17 05:17:00,
2014-01-16 21:22:00,61.7,17.7,30.15,North,349,3.5,3.5,18,0.00,CLR,SCT,0.00,0.0,WeatherDisplay:10.37,2014-01-17 05:22:00,
2014-01-16 21:27:00,60.9,19.5,30.16,WNW,291,3.5,3.5,20,0.00,CLR,SCT,0.00,0.0,WeatherDisplay:10.37,2014-01-17 05:27:00,
2014-01-16 21:32:00,60.3,20.2,30.16,North,355,2.3,2.3,21,0.00,CLR,SCT,0.00,0.0,WeatherDisplay:10.37,2014-01-17 05:32:00,
2014-01-16 21:37:00,60.2,17.7,30.15,NE,43,3.5,3.5,19,0.00,CLR,SCT,0.00,0.0,WeatherDisplay:10.37,2014-01-17 05:37:00,
2014-01-16 21:42:00,60.9,15.7,30.15,North,351,3.5,3.5,17,0.00,CLR,SCT,0.00,0.0,WeatherDisplay:10.37,2014-01-17 05:42:00,
2014-01-16 21:47:00,60.7,18.1,30.16,NE,46,2.3,2.3,19,0.00,CLR,SCT,0.00,0.0,WeatherDisplay:10.37,2014-01-17 05:47:00,
2014-01-16 21:52:00,60.2,18.9,30.16,NNW,331,3.5,3.5,20,0.00,CLR,SCT,0.00,0.0,WeatherDisplay:10.37,2014-01-17 05:52:00,
2014-01-16 21:57:00,60.3,19.0,30.16,NW,313,2.3,2.3,20,0.00,CLR,SCT,0.00,0.0,WeatherDisplay:10.37,2014-01-17 05:57:00,
2014-01-16 22:02:00,60.2,18.9,30.16,NNW,342,3.5,3.5,20,0.00,CLR,SCT,0.00,0.0,WeatherDisplay:10.37,2014-01-17 06:02:00,
2014-01-16 22:07:00,59.9,18.7,30.16,NNW,348,3.5,3.5,20,0.00,CLR,SCT,0.00,0.0,WeatherDisplay:10.37,2014-01-17 06:07:00,
2014-01-16 22:12:00,59.8,17.4,30.16,NNW,344,3.5,3.5,19,0.00,CLR,SCT,0.00,0.0,WeatherDisplay:10.37,2014-01-17 06:12:00,
2014-01-16 22:17:00,59.9,18.7,30.16,NE,44,2.3,2.3,20,0.00,CLR,SCT,0.00,0.0,WeatherDisplay:10.37,2014-01-17 06:17:00,
2014-01-16 22:22:00,59.9,18.7,30.15,NNW,334,2.3,2.3,20,0.00,CLR,SCT,0.00,0.0,WeatherDisplay:10.37,2014-01-17 06:22:00,
2014-01-16 22:27:00,60.5,18.0,30.15,NW,306,1.2,1.2,19,0.00,CLR,SCT,0.00,0.0,WeatherDisplay:10.37,2014-01-17 06:27:00,
2014-01-16 22:32:00,60.4,16.6,30.15,North,355,2.0,2.0,18,0.00,CLR,SCT,0.00,0.0,WeatherDisplay:10.37,2014-01-17 06:32:00,
2014-01-16 22:37:00,60.2,17.7,30.15,North,360,1.0,1.0,19,0.00,CLR,SCT,0.00,0.0,WeatherDisplay:10.37,2014-01-17 06:37:00,
2014-01-16 22:42:00,60.3,16.6,30.15,NNW,336,2.3,2.3,18,0.00,CLR,SCT,0.00,0.0,WeatherDisplay:10.37,2014-01-17 06:42:00,
2014-01-16 22:45:00,60.3,16.6,30.15,NNW,345,1.0,1.0,18,0.00,CLR,SCT,0.00,0.0,WeatherDisplay:10.37,2014-01-17 06:45:00,
2014-01-16 22:50:00,60.9,17.0,30.15,NW,318,4.6,4.6,18,0.00,CLR,SCT,0.00,0.0,WeatherDisplay:10.37,2014-01-17 06:50:00,
2014-01-16 22:55:00,61.6,16.3,30.15,North,5,3.5,3.5,17,0.00,CLR,SCT,0.00,0.0,WeatherDisplay:10.37,2014-01-17 06:55:00,
2014-01-16 23:00:00,61.4,16.1,30.15,West,275,2.0,0.0,17,0.00,CLR,SCT,0.00,0.0,WeatherDisplay:10.37,2014-01-17 07:00:00,
2014-01-16 23:05:00,60.9,18.3,30.15,West,277,2.0,2.0,19,0.00,CLR,SCT,0.00,0.0,WeatherDisplay:10.37,2014-01-17 07:05:00,
2014-01-16 23:10:00,60.3,21.2,30.15,West,277,2.3,2.3,22,0.00,CLR,SCT,0.00,0.0,WeatherDisplay:10.37,2014-01-17 07:10:00,
2014-01-16 23:15:00,60.4,19.1,30.16,NNE,26,1.2,0.0,20,0.00,CLR,SCT,0.00,0.0,WeatherDisplay:10.37,2014-01-17 07:15:00,
2014-01-16 23:20:00,59.3,21.5,30.16,NNE,26,0.0,0.0,23,0.00,CLR,SCT,0.00,0.0,WeatherDisplay:10.37,2014-01-17 07:20:00,
2014-01-16 23:25:00,58.2,20.5,30.16,NNE,26,0.0,0.0,23,0.00,CLR,SCT,0.00,0.0,WeatherDisplay:10.37,2014-01-17 07:25:00,
2014-01-16 23:30:00,57.3,19.8,30.16,NNE,26,0.0,0.0,23,0.00,CLR,SCT,0.00,0.0,WeatherDisplay:10.37,2014-01-17 07:30:00,
2014-01-16 23:35:00,56.5,20.1,30.16,NNE,26,2.0,2.0,24,0.00,CLR,SCT,0.00,0.0,WeatherDisplay:10.37,2014-01-17 07:35:00,
2014-01-16 23:40:00,56.0,20.6,30.16,NNE,26,2.0,2.0,25,0.00,CLR,SCT,0.00,0.0,WeatherDisplay:10.37,2014-01-17 07:40:00,
2014-01-16 23:45:00,55.7,21.3,30.16,NNE,26,2.3,0.0,26,0.00,CLR,SCT,0.00,0.0,WeatherDisplay:10.37,2014-01-17 07:45:00,
2014-01-16 23:50:00,55.0,20.7,30.16,NNE,26,0.0,0.0,26,0.00,CLR,SCT,0.00,0.0,WeatherDisplay:10.37,2014-01-17 07:50:00,
2014-01-16 23:55:00,55.0,20.7,30.16,NNE,26,1.2,0.0,26,0.00,CLR,SCT,0.00,0.0,WeatherDisplay:10.37,2014-01-17 07:55:00,